Time;durP1;ratioP1;P1;durP2;ratioP2;P2;SDS_P1;SDS_P2;PMS_P1;PMS_P2;Temp;Humidity;BMP_temperature;BMP_pressure;BME280_temperature;BME280_humidity;BME280_pressure;Samples;Min_cycle;Max_cycle;Signal;HPM_P1;HPM_P2
2022/07/05 00:00:51;;;;;;;3.93;3.60;;;18.40;56.20;;;;;;5230695;28;20546;-47
2022/07/05 00:03:21;;;;;;;3.70;2.93;;;18.40;56.50;;;;;;5229550;28;20424;-49
2022/07/05 00:05:52;;;;;;;5.00;3.40;;;18.40;56.60;;;;;;5245186;28;20294;-47
2022/07/05 00:08:23;;;;;;;8.43;3.73;;;18.50;56.60;;;;;;5245152;28;20194;-48
2022/07/05 00:10:53;;;;;;;4.77;3.03;;;18.40;56.60;;;;;;5232515;28;20512;-47
2022/07/05 00:13:24;;;;;;;6.27;3.00;;;18.40;56.70;;;;;;5241636;28;20183;-47
2022/07/05 00:15:55;;;;;;;3.00;2.77;;;18.40;56.70;;;;;;5226137;28;20214;-46
2022/07/05 00:18:25;;;;;;;3.43;3.13;;;18.30;56.80;;;;;;5245656;28;20255;-49
2022/07/05 00:20:56;;;;;;;2.83;2.50;;;18.30;57.00;;;;;;5229085;28;20179;-47
2022/07/05 00:23:27;;;;;;;3.07;2.60;;;18.30;57.30;;;;;;5241731;28;20270;-48
2022/07/05 00:25:57;;;;;;;5.23;2.73;;;18.20;57.40;;;;;;5222563;28;20211;-47
2022/07/05 00:28:28;;;;;;;3.10;2.90;;;18.20;57.70;;;;;;5207806;28;20225;-48
2022/07/05 00:30:58;;;;;;;3.30;3.10;;;18.10;58.00;;;;;;5209718;28;20175;-47
2022/07/05 00:33:29;;;;;;;6.67;3.53;;;18.10;58.30;;;;;;5229074;28;20331;-47
2022/07/05 00:36:00;;;;;;;7.30;3.37;;;18.10;58.50;;;;;;5228214;28;20213;-47
2022/07/05 00:38:30;;;;;;;3.50;2.53;;;18.10;58.20;;;;;;5243456;28;20232;-46
2022/07/05 00:41:01;;;;;;;13.30;2.73;;;18.20;57.90;;;;;;5246764;28;20174;-47
2022/07/05 00:43:32;;;;;;;4.90;2.40;;;18.20;57.90;;;;;;5239246;28;20240;-47
2022/07/05 00:46:02;;;;;;;3.50;3.10;;;18.20;57.90;;;;;;5243671;28;20182;-47
2022/07/05 00:48:33;;;;;;;2.90;2.60;;;18.20;58.10;;;;;;5200841;28;20189;-46
2022/07/05 00:51:04;;;;;;;2.80;2.33;;;18.20;58.10;;;;;;5228923;28;20194;-46
2022/07/05 00:53:34;;;;;;;4.53;2.90;;;18.20;58.30;;;;;;5244133;28;20184;-46
2022/07/05 00:56:05;;;;;;;2.77;2.57;;;18.10;58.50;;;;;;5246960;28;20189;-45
2022/07/05 00:58:36;;;;;;;2.40;2.30;;;18.10;58.80;;;;;;5227084;28;20206;-46
2022/07/05 01:01:08;;;;;;;8.30;4.97;;;18.00;59.00;;;;;;5224059;28;20273;-45
2022/07/05 01:03:39;;;;;;;5.50;3.87;;;18.00;59.70;;;;;;5237192;28;20233;-45
2022/07/05 01:06:14;;;;;;;6.30;3.73;;;18.00;60.30;;;;;;5246750;28;20468;-45
2022/07/05 01:08:45;;;;;;;6.43;3.43;;;18.00;60.80;;;;;;5230367;28;20186;-45
2022/07/05 01:11:16;;;;;;;3.53;3.23;;;18.00;61.40;;;;;;5226567;28;20876;-45
2022/07/05 01:13:47;;;;;;;4.37;2.70;;;18.10;62.70;;;;;;5226245;28;20536;-45
2022/07/05 01:16:18;;;;;;;3.00;2.40;;;18.00;63.70;;;;;;5227350;28;20214;-46
2022/07/05 01:18:48;;;;;;;3.07;2.90;;;18.00;64.10;;;;;;5241809;28;20596;-45
2022/07/05 01:21:22;;;;;;;4.50;3.20;;;18.00;64.50;;;;;;5219702;28;20178;-45
2022/07/05 01:23:53;;;;;;;4.50;2.30;;;17.90;65.30;;;;;;5226849;28;20602;-45
2022/07/05 01:26:24;;;;;;;2.40;2.20;;;17.90;66.20;;;;;;5229783;28;20452;-46
2022/07/05 01:28:55;;;;;;;2.10;1.90;;;17.80;67.80;;;;;;5219556;28;20483;-45
2022/07/05 01:31:26;;;;;;;2.87;2.03;;;17.80;67.70;;;;;;5223892;28;20317;-46
2022/07/05 01:33:57;;;;;;;9.00;2.20;;;17.70;68.20;;;;;;5237787;28;20736;-45
2022/07/05 01:36:28;;;;;;;2.23;2.00;;;17.70;69.10;;;;;;5227287;28;20205;-45
2022/07/05 01:39:00;;;;;;;2.77;2.43;;;17.70;70.10;;;;;;5244902;28;20436;-46
2022/07/05 01:41:31;;;;;;;3.80;2.63;;;17.60;69.40;;;;;;5226277;28;20237;-46
2022/07/05 01:44:03;;;;;;;2.80;2.60;;;17.60;69.40;;;;;;5225632;28;20430;-46
2022/07/05 01:46:38;;;;;;;4.87;2.07;;;17.50;69.30;;;;;;5246326;28;20439;-46
2022/07/05 01:49:13;;;;;;;2.47;2.27;;;17.50;69.30;;;;;;5248944;28;20481;-45
2022/07/05 01:52:06;;;;;;;2.00;1.90;;;17.40;69.50;;;;;;5240414;28;20446;-45
2022/07/05 01:54:38;;;;;;;1.60;1.60;;;17.30;69.40;;;;;;5230215;28;20461;-44
2022/07/05 01:57:09;;;;;;;8.20;3.97;;;17.20;69.90;;;;;;5242827;28;20455;-45
2022/07/05 01:59:40;;;;;;;2.87;2.60;;;17.20;70.70;;;;;;5246723;28;20432;-45
2022/07/05 02:02:11;;;;;;;1.43;1.43;;;17.20;70.80;;;;;;5229524;28;20439;-45
2022/07/05 02:04:42;;;;;;;1.33;1.23;;;17.20;71.40;;;;;;5230772;28;20445;-45
2022/07/05 02:07:12;;;;;;;3.83;1.30;;;17.10;71.90;;;;;;5241154;28;20202;-45
2022/07/05 02:09:43;;;;;;;1.60;1.60;;;17.10;72.50;;;;;;5242004;28;20183;-44
2022/07/05 02:12:13;;;;;;;2.20;1.93;;;17.10;73.00;;;;;;5251928;28;20182;-47
2022/07/05 02:14:44;;;;;;;3.70;2.00;;;17.10;73.50;;;;;;5247114;28;20287;-46
2022/07/05 02:17:15;;;;;;;1.80;1.80;;;17.00;74.10;;;;;;5246536;28;20232;-45
2022/07/05 02:19:45;;;;;;;3.60;1.70;;;17.00;74.50;;;;;;5249966;28;20581;-46
2022/07/05 02:22:16;;;;;;;2.70;1.70;;;17.00;75.30;;;;;;5232011;28;20198;-44
2022/07/05 02:24:46;;;;;;;2.63;1.40;;;16.90;76.10;;;;;;5226051;28;20183;-46
2022/07/05 02:27:17;;;;;;;1.70;1.47;;;16.90;76.80;;;;;;5225620;28;20207;-45
2022/07/05 02:29:48;;;;;;;1.50;1.40;;;16.80;78.00;;;;;;5234772;28;20253;-44
2022/07/05 02:32:18;;;;;;;2.97;2.10;;;16.70;79.70;;;;;;5230377;28;20441;-46
2022/07/05 02:34:49;;;;;;;1.80;1.70;;;16.70;81.80;;;;;;5251620;28;20210;-46
2022/07/05 02:37:20;;;;;;;1.80;1.70;;;16.60;83.80;;;;;;5234591;28;20206;-47
2022/07/05 02:39:50;;;;;;;1.07;1.07;;;16.50;85.80;;;;;;5225926;28;20246;-49
2022/07/05 02:42:21;;;;;;;3.73;2.40;;;16.50;88.10;;;;;;5216967;28;20179;-49
2022/07/05 02:44:52;;;;;;;1.63;1.53;;;16.50;90.40;;;;;;5224659;28;20186;-48
2022/07/05 02:47:22;;;;;;;2.40;2.17;;;16.50;91.50;;;;;;5250152;28;20209;-48
2022/07/05 02:49:53;;;;;;;2.33;1.67;;;16.40;92.70;;;;;;5246699;28;20171;-47
2022/07/05 02:52:24;;;;;;;2.77;1.90;;;16.40;93.70;;;;;;5249995;28;20254;-48
2022/07/05 02:54:54;;;;;;;2.73;2.00;;;16.40;94.60;;;;;;5243592;28;20217;-48
2022/07/05 02:57:25;;;;;;;3.37;1.57;;;16.30;95.60;;;;;;5237250;28;20206;-49
2022/07/05 02:59:57;;;;;;;3.90;2.00;;;16.20;96.30;;;;;;5217093;28;20183;-46
2022/07/05 03:02:28;;;;;;;2.13;1.83;;;16.10;97.60;;;;;;5227384;28;20190;-49
2022/07/05 03:04:58;;;;;;;1.30;1.20;;;16.10;99.10;;;;;;5229916;28;20433;-45
2022/07/05 03:07:29;;;;;;;3.53;1.97;;;16.00;99.90;;;;;;5250295;28;20202;-45
2022/07/05 03:09:59;;;;;;;1.93;1.70;;;16.00;99.90;;;;;;5245831;28;20673;-44
2022/07/05 03:12:30;;;;;;;5.13;2.10;;;15.90;99.90;;;;;;5224759;28;20199;-45
2022/07/05 03:15:00;;;;;;;9.77;3.00;;;16.00;99.90;;;;;;5207463;28;20202;-44
2022/07/05 03:17:31;;;;;;;3.03;1.53;;;15.90;99.90;;;;;;5216837;28;20211;-46
2022/07/05 03:20:02;;;;;;;2.23;2.13;;;15.90;99.90;;;;;;5243433;28;20178;-46
2022/07/05 03:22:32;;;;;;;1.47;1.40;;;15.90;99.90;;;;;;5219351;28;20178;-50
2022/07/05 03:25:03;;;;;;;1.70;1.60;;;15.90;99.90;;;;;;5222164;28;20186;-45
2022/07/05 03:27:34;;;;;;;1.50;1.40;;;15.90;99.90;;;;;;5251912;23;20688;-48
2022/07/05 03:30:05;;;;;;;1.43;1.30;;;15.90;99.90;;;;;;5241868;28;20440;-48
2022/07/05 03:32:36;;;;;;;3.13;1.90;;;15.90;99.90;;;;;;5248045;28;20180;-49
2022/07/05 03:35:07;;;;;;;1.93;1.70;;;15.90;99.90;;;;;;5244350;28;20464;-48
2022/07/05 03:37:37;;;;;;;9.10;1.73;;;15.80;99.90;;;;;;5228435;28;20281;-47
2022/07/05 03:40:09;;;;;;;1.80;1.50;;;15.80;99.90;;;;;;5233586;28;20206;-47
2022/07/05 03:42:39;;;;;;;3.43;2.20;;;15.80;99.90;;;;;;5221541;28;20205;-48
2022/07/05 03:45:10;;;;;;;1.70;1.67;;;15.80;99.90;;;;;;5230794;28;20983;-47
2022/07/05 03:47:41;;;;;;;1.77;1.67;;;15.70;99.90;;;;;;5229812;28;20294;-49
2022/07/05 03:50:11;;;;;;;2.13;1.67;;;15.80;99.90;;;;;;5247223;28;20244;-47
2022/07/05 03:52:42;;;;;;;1.40;1.40;;;15.80;99.90;;;;;;5226600;28;20193;-47
2022/07/05 03:55:13;;;;;;;2.47;1.70;;;15.80;99.90;;;;;;5248066;28;20202;-48
2022/07/05 03:57:43;;;;;;;1.90;1.70;;;15.80;99.90;;;;;;5230813;28;20244;-47
2022/07/05 04:00:15;;;;;;;1.50;1.40;;;15.80;99.90;;;;;;5231096;28;20186;-47
2022/07/05 04:02:45;;;;;;;2.60;1.53;;;15.90;99.90;;;;;;5229855;28;20182;-48
2022/07/05 04:05:16;;;;;;;1.57;1.33;;;16.00;99.90;;;;;;5226981;28;20437;-48
2022/07/05 04:07:51;;;;;;;1.37;1.37;;;16.10;99.90;;;;;;5240978;28;20195;-49
2022/07/05 04:10:24;;;;;;;1.67;1.53;;;16.20;99.90;;;;;;5238705;28;20631;-47
2022/07/05 04:12:55;;;;;;;2.17;2.07;;;16.30;99.90;;;;;;5230323;28;20460;-48
2022/07/05 04:15:25;;;;;;;2.13;1.90;;;16.30;99.90;;;;;;5237735;28;20499;-49
2022/07/05 04:17:56;;;;;;;2.10;1.67;;;16.40;99.90;;;;;;5225621;28;20247;-48
2022/07/05 04:20:27;;;;;;;5.23;1.87;;;16.50;99.90;;;;;;5224479;28;20178;-47
2022/07/05 04:22:58;;;;;;;1.53;1.50;;;16.50;99.90;;;;;;5227703;28;20436;-48
2022/07/05 04:25:28;;;;;;;2.13;1.97;;;16.60;99.90;;;;;;5241642;28;20545;-48
2022/07/05 04:27:59;;;;;;;1.80;1.70;;;16.80;99.90;;;;;;5239905;28;20218;-49
2022/07/05 04:30:30;;;;;;;2.30;2.10;;;16.90;99.90;;;;;;5241592;28;20650;-48
2022/07/05 04:33:00;;;;;;;4.63;1.80;;;17.10;99.90;;;;;;5228709;28;20190;-48
2022/07/05 04:35:31;;;;;;;5.30;1.80;;;17.50;99.90;;;;;;5222676;28;20249;-48
2022/07/05 04:38:01;;;;;;;1.67;1.43;;;17.80;99.90;;;;;;5240671;28;20198;-48
2022/07/05 04:40:32;;;;;;;1.70;1.40;;;18.20;99.90;;;;;;5238109;28;20482;-48
2022/07/05 04:43:03;;;;;;;1.40;1.30;;;18.50;99.90;;;;;;5243602;28;20179;-49
2022/07/05 04:45:33;;;;;;;1.63;1.50;;;18.70;99.30;;;;;;5222151;28;20570;-48
2022/07/05 04:48:04;;;;;;;2.60;1.60;;;19.30;97.90;;;;;;5240128;28;20209;-49
2022/07/05 04:50:35;;;;;;;1.80;1.67;;;19.90;94.80;;;;;;5242221;28;20282;-49
2022/07/05 04:53:05;;;;;;;1.90;1.77;;;21.00;91.00;;;;;;5245540;28;20178;-49
2022/07/05 04:55:36;;;;;;;1.50;1.27;;;21.90;79.90;;;;;;5241081;28;20285;-48
2022/07/05 04:58:07;;;;;;;4.43;1.73;;;22.20;71.40;;;;;;5240135;28;20279;-48
2022/07/05 05:00:37;;;;;;;3.70;1.10;;;22.40;69.00;;;;;;5247205;28;20193;-48
2022/07/05 05:03:08;;;;;;;2.33;1.33;;;23.10;64.10;;;;;;5221984;28;20178;-49
2022/07/05 05:05:39;;;;;;;1.20;1.10;;;23.60;61.70;;;;;;5243400;28;20205;-48
2022/07/05 05:08:09;;;;;;;3.30;1.50;;;24.10;58.90;;;;;;5224098;28;20207;-48
2022/07/05 05:10:40;;;;;;;2.10;1.40;;;24.90;56.60;;;;;;5241600;28;20685;-48
2022/07/05 05:13:10;;;;;;;1.37;0.90;;;25.40;54.20;;;;;;5220359;28;20277;-48
2022/07/05 05:15:41;;;;;;;1.60;1.50;;;26.30;52.40;;;;;;5228264;28;20205;-48
2022/07/05 05:18:12;;;;;;;2.30;1.20;;;26.70;48.70;;;;;;5237087;28;20199;-48
2022/07/05 05:20:42;;;;;;;2.00;1.10;;;27.20;48.10;;;;;;5216543;28;20258;-49
2022/07/05 05:23:13;;;;;;;4.50;1.27;;;28.20;46.70;;;;;;5249165;28;20244;-49
2022/07/05 05:25:43;;;;;;;1.30;1.20;;;28.50;44.20;;;;;;5220663;28;20178;-49
2022/07/05 05:28:14;;;;;;;3.70;1.37;;;29.10;43.10;;;;;;5232928;28;20216;-49
2022/07/05 05:30:46;;;;;;;7.20;1.53;;;29.70;41.80;;;;;;5241868;28;20214;-49
2022/07/05 05:33:16;;;;;;;1.23;1.13;;;30.00;41.10;;;;;;5241386;28;20229;-50
2022/07/05 05:35:47;;;;;;;3.13;1.00;;;30.60;40.50;;;;;;5244831;28;20936;-50
2022/07/05 05:38:18;;;;;;;3.33;1.40;;;31.70;38.10;;;;;;5247998;28;20208;-51
2022/07/05 05:40:48;;;;;;;0.87;0.83;;;32.40;36.40;;;;;;5240681;28;20534;-50
2022/07/05 05:43:19;;;;;;;0.90;0.90;;;32.80;36.00;;;;;;5244216;28;20189;-50
2022/07/05 05:45:49;;;;;;;2.00;1.00;;;33.70;34.50;;;;;;5245000;28;20178;-49
2022/07/05 05:48:20;;;;;;;2.63;1.03;;;33.70;32.40;;;;;;5232631;28;20263;-51
2022/07/05 05:50:51;;;;;;;3.03;1.10;;;33.30;32.40;;;;;;5245154;28;20182;-50
2022/07/05 05:53:22;;;;;;;2.20;0.97;;;33.60;32.30;;;;;;5249005;28;20201;-50
2022/07/05 05:55:52;;;;;;;0.90;0.90;;;34.00;31.30;;;;;;5246073;28;20201;-49
2022/07/05 05:58:23;;;;;;;1.93;1.03;;;34.00;30.30;;;;;;5241274;28;20240;-50
2022/07/05 06:00:54;;;;;;;2.80;1.47;;;33.60;30.00;;;;;;5244677;28;20182;-52
2022/07/05 06:03:29;;;;;;;4.13;1.30;;;33.80;30.00;;;;;;5232946;28;20192;-48
2022/07/05 06:06:00;;;;;;;1.37;1.10;;;33.60;29.90;;;;;;5232536;28;20180;-49
2022/07/05 06:08:30;;;;;;;1.90;0.70;;;33.60;29.40;;;;;;5228711;28;20241;-50
2022/07/05 06:11:04;;;;;;;2.30;1.10;;;34.30;29.50;;;;;;5233991;28;20244;-50
2022/07/05 06:13:34;;;;;;;7.00;1.27;;;35.30;28.40;;;;;;5233432;28;20193;-51
2022/07/05 06:16:06;;;;;;;1.77;1.15;;;36.10;27.70;;;;;;5227262;28;20209;-50
2022/07/05 06:18:37;;;;;;;4.60;1.42;;;35.70;27.10;;;;;;5242695;28;20572;-50
2022/07/05 06:21:08;;;;;;;5.43;1.37;;;35.40;27.30;;;;;;5230811;28;20182;-49
2022/07/05 06:23:38;;;;;;;2.77;0.80;;;34.80;28.00;;;;;;5245834;28;20981;-50
2022/07/05 06:26:09;;;;;;;0.70;0.70;;;34.40;28.80;;;;;;5248966;28;20184;-48
2022/07/05 06:28:39;;;;;;;2.73;1.50;;;34.80;28.30;;;;;;5238596;28;20272;-51
2022/07/05 06:31:10;;;;;;;1.30;1.30;;;34.80;28.40;;;;;;5246639;28;20552;-49
2022/07/05 06:33:40;;;;;;;1.63;1.50;;;35.50;27.90;;;;;;5243705;28;20212;-51
2022/07/05 06:36:11;;;;;;;1.50;0.60;;;35.90;27.30;;;;;;5224619;28;20583;-50
2022/07/05 06:38:42;;;;;;;1.35;1.25;;;35.10;27.60;;;;;;5244593;28;20209;-50
2022/07/05 06:41:12;;;;;;;1.70;0.70;;;35.40;27.80;;;;;;5248983;28;20184;-50
2022/07/05 06:43:43;;;;;;;2.15;1.25;;;35.70;27.60;;;;;;5238207;28;20190;-49
2022/07/05 06:46:13;;;;;;;1.75;1.08;;;36.60;27.00;;;;;;5219000;28;20688;-49
2022/07/05 06:48:44;;;;;;;1.50;1.10;;;36.40;26.40;;;;;;5247329;28;20223;-50
2022/07/05 06:51:15;;;;;;;2.10;1.00;;;36.10;26.90;;;;;;5244494;28;20192;-50
2022/07/05 06:53:45;;;;;;;3.80;0.70;;;35.60;26.90;;;;;;5236670;28;20244;-52
2022/07/05 06:56:16;;;;;;;1.17;1.17;;;34.90;27.90;;;;;;5231057;28;20209;-51
2022/07/05 06:58:46;;;;;;;1.23;1.20;;;35.80;27.40;;;;;;5222461;28;20526;-49
2022/07/05 07:01:17;;;;;;;0.60;0.60;;;36.30;26.40;;;;;;5230522;28;20181;-50
2022/07/05 07:03:48;;;;;;;1.98;0.98;;;35.70;26.90;;;;;;5236273;28;20182;-51
2022/07/05 07:06:19;;;;;;;1.05;1.05;;;35.90;27.00;;;;;;5241502;28;20206;-50
2022/07/05 07:11:39;;;;;;;9.05;1.02;;;36.20;26.60;;;;;;5247138;28;20190;-49
2022/07/05 07:14:09;;;;;;;3.60;1.05;;;36.50;26.20;;;;;;5225752;28;20201;-49
2022/07/05 07:16:40;;;;;;;1.13;1.00;;;36.70;26.10;;;;;;5227198;28;20205;-49
2022/07/05 07:19:11;;;;;;;2.47;1.20;;;37.10;25.60;;;;;;5243715;28;20668;-50
2022/07/05 07:21:42;;;;;;;1.10;1.00;;;37.50;25.50;;;;;;5237489;28;20181;-50
2022/07/05 07:24:12;;;;;;;0.68;0.68;;;36.60;25.30;;;;;;5219424;28;20665;-50
2022/07/05 07:29:34;;;;;;;1.35;1.25;;;36.40;25.70;;;;;;5241041;28;20197;-50
2022/07/05 07:32:07;;;;;;;1.63;1.52;;;36.10;26.00;;;;;;5249037;28;20178;-50
2022/07/05 07:34:38;;;;;;;2.08;1.75;;;35.80;26.50;;;;;;5229357;28;20297;-49
2022/07/05 07:37:13;;;;;;;1.50;1.50;;;35.40;26.80;;;;;;5225282;28;20331;-50
2022/07/05 07:39:43;;;;;;;0.85;0.85;;;35.90;26.20;;;;;;5230351;28;20256;-50
2022/07/05 07:42:14;;;;;;;1.75;1.20;;;36.80;25.90;;;;;;5226041;28;20186;-50
2022/07/05 07:44:44;;;;;;;1.77;1.58;;;37.20;25.00;;;;;;5242828;28;20250;-50
2022/07/05 07:47:15;;;;;;;6.72;1.10;;;35.50;25.60;;;;;;5241685;28;20228;-51
2022/07/05 07:49:46;;;;;;;2.58;1.15;;;35.10;26.30;;;;;;5229401;28;20186;-50
2022/07/05 07:52:17;;;;;;;1.13;0.95;;;36.00;26.10;;;;;;5227916;28;20211;-50
2022/07/05 07:54:47;;;;;;;2.10;0.95;;;36.90;25.30;;;;;;5229600;28;20296;-50
2022/07/05 07:57:18;;;;;;;1.15;1.00;;;37.30;24.90;;;;;;5241723;28;20210;-49
2022/07/05 07:59:49;;;;;;;2.58;1.48;;;36.70;25.10;;;;;;5243423;28;20218;-50
2022/07/05 08:02:21;;;;;;;1.88;1.27;;;37.40;25.30;;;;;;5240780;28;20175;-51
2022/07/05 08:04:51;;;;;;;1.77;1.65;;;37.70;24.20;;;;;;5238253;28;20201;-50
2022/07/05 08:07:22;;;;;;;3.30;1.67;;;36.60;24.50;;;;;;5236910;28;20202;-50
2022/07/05 08:09:53;;;;;;;4.47;1.15;;;35.80;25.30;;;;;;5218598;28;20182;-51
2022/07/05 08:12:23;;;;;;;1.30;1.13;;;36.50;25.20;;;;;;5228451;28;20178;-49
2022/07/05 08:14:54;;;;;;;1.33;0.93;;;36.80;24.90;;;;;;5238786;28;20297;-50
2022/07/05 08:17:24;;;;;;;0.75;0.68;;;36.00;24.30;;;;;;5235885;28;20193;-49
2022/07/05 08:22:44;;;;;;;14.20;1.38;;;35.60;25.60;;;;;;5244882;28;20592;-50
2022/07/05 08:25:16;;;;;;;0.93;0.93;;;35.80;25.90;;;;;;5232096;28;20193;-50
2022/07/05 08:27:47;;;;;;;2.05;1.17;;;36.20;25.10;;;;;;5237154;28;20312;-51
2022/07/05 08:30:18;;;;;;;0.90;0.90;;;36.40;25.10;;;;;;5243413;28;20198;-49
2022/07/05 08:32:48;;;;;;;3.00;0.88;;;36.70;25.30;;;;;;5227321;28;20280;-50
2022/07/05 08:35:19;;;;;;;5.57;1.67;;;36.80;25.10;;;;;;5246754;28;20209;-49
2022/07/05 08:37:49;;;;;;;1.60;1.27;;;37.20;25.00;;;;;;5229641;28;20228;-50
2022/07/05 08:40:25;;;;;;;1.02;1.02;;;35.60;24.80;;;;;;5246027;28;20214;-50
2022/07/05 08:42:58;;;;;;;1.63;1.00;;;35.60;25.90;;;;;;5222399;28;20181;-50
2022/07/05 08:45:30;;;;;;;1.55;1.17;;;35.00;26.00;;;;;;5243905;28;20190;-50
2022/07/05 08:48:01;;;;;;;2.97;0.65;;;34.90;26.60;;;;;;5232377;28;20693;-50
2022/07/05 08:50:33;;;;;;;3.70;1.30;;;34.80;26.70;;;;;;5205130;28;20216;-48
2022/07/05 08:53:04;;;;;;;4.50;1.20;;;34.90;26.50;;;;;;5228967;28;20549;-50
2022/07/05 08:55:36;;;;;;;1.03;0.60;;;34.10;27.50;;;;;;5244358;28;20210;-50
2022/07/05 08:58:06;;;;;;;3.00;1.40;;;32.50;28.60;;;;;;5246992;28;20190;-49
2022/07/05 09:00:39;;;;;;;2.93;1.20;;;30.90;30.70;;;;;;5233775;28;20451;-49
2022/07/05 09:03:10;;;;;;;5.50;1.63;;;29.20;32.90;;;;;;5234261;28;20178;-50
2022/07/05 09:05:45;;;;;;;1.23;1.23;;;28.10;34.50;;;;;;5232772;28;20581;-48
2022/07/05 09:08:16;;;;;;;1.00;1.00;;;27.40;36.40;;;;;;5243330;28;20205;-49
2022/07/05 09:10:49;;;;;;;1.20;1.20;;;26.80;37.70;;;;;;5239483;28;20436;-50
2022/07/05 09:13:20;;;;;;;1.20;1.00;;;26.60;38.00;;;;;;5232471;28;20458;-48
2022/07/05 09:15:50;;;;;;;1.67;1.57;;;26.40;38.30;;;;;;5233111;28;20500;-48
2022/07/05 09:18:45;;;;;;;1.87;1.20;;;26.30;38.90;;;;;;5230076;28;20202;-48
2022/07/05 09:21:17;;;;;;;3.77;1.40;;;25.70;39.40;;;;;;5238375;28;20186;-48
2022/07/05 09:23:57;;;;;;;12.10;1.50;;;25.50;40.30;;;;;;5231072;28;20513;-48
2022/07/05 09:26:39;;;;;;;1.13;1.00;;;25.50;40.60;;;;;;5232872;28;20431;-50
2022/07/05 09:29:15;;;;;;;8.30;4.43;;;25.30;40.90;;;;;;5269804;23;20538;-51
2022/07/05 09:31:49;;;;;;;1.83;1.50;;;25.50;41.00;;;;;;5250820;28;20439;-50
2022/07/05 09:34:21;;;;;;;1.37;1.30;;;25.60;40.40;;;;;;5252366;28;20459;-50
2022/07/05 09:37:01;;;;;;;2.57;1.13;;;25.50;40.40;;;;;;5224846;28;20432;-51
2022/07/05 09:39:38;;;;;;;1.73;1.67;;;25.50;40.70;;;;;;5213996;28;20437;-52
2022/07/05 09:42:20;;;;;;;2.37;1.20;;;25.60;40.90;;;;;;5212230;28;20517;-51
2022/07/05 09:44:57;;;;;;;2.20;1.47;;;25.60;40.40;;;;;;5214135;28;20425;-51
2022/07/05 09:47:29;;;;;;;1.70;1.60;;;25.40;40.80;;;;;;5193293;28;20442;-52
2022/07/05 09:50:03;;;;;;;1.57;1.47;;;25.00;41.50;;;;;;5232021;28;20437;-51
2022/07/05 09:52:39;;;;;;;2.37;2.20;;;24.60;42.00;;;;;;5232983;28;20475;-51
2022/07/05 09:55:10;;;;;;;4.13;1.27;;;24.70;43.40;;;;;;5232256;28;20456;-52
2022/07/05 09:57:42;;;;;;;4.80;3.00;;;24.40;42.50;;;;;;5213321;28;20815;-52
2022/07/05 10:00:17;;;;;;;4.83;1.90;;;24.40;43.20;;;;;;5215317;28;20422;-52
2022/07/05 10:02:51;;;;;;;2.20;1.20;;;24.90;43.20;;;;;;5226818;28;20886;-52
2022/07/05 10:05:23;;;;;;;1.37;1.37;;;25.30;41.90;;;;;;5225817;28;20487;-53
2022/07/05 10:07:58;;;;;;;5.60;2.47;;;25.20;41.80;;;;;;5215135;28;20530;-51
2022/07/05 10:10:31;;;;;;;2.30;1.70;;;25.10;42.60;;;;;;5230874;28;20440;-51
2022/07/05 10:13:05;;;;;;;1.30;1.30;;;25.10;42.50;;;;;;5193767;28;20914;-53
2022/07/05 10:15:36;;;;;;;1.70;1.60;;;25.40;42.00;;;;;;5227858;28;20522;-52
2022/07/05 10:18:19;;;;;;;16.43;3.90;;;25.40;41.90;;;;;;5230304;28;20500;-51
2022/07/05 10:20:53;;;;;;;4.03;3.30;;;25.50;41.20;;;;;;5228034;28;20175;-53
2022/07/05 10:23:24;;;;;;;2.67;2.43;;;25.30;41.20;;;;;;5228295;28;20413;-51
2022/07/05 10:25:56;;;;;;;9.43;1.87;;;25.10;41.40;;;;;;5232596;28;20441;-53
2022/07/05 10:28:27;;;;;;;10.97;7.87;;;25.20;41.80;;;;;;5212904;28;20999;-51
2022/07/05 10:30:59;;;;;;;10.93;3.90;;;25.30;41.60;;;;;;5221469;28;20528;-53
2022/07/05 10:33:30;;;;;;;3.00;1.53;;;25.10;41.90;;;;;;5228406;28;20440;-53
2022/07/05 10:36:02;;;;;;;4.43;2.00;;;25.20;41.80;;;;;;5225147;28;20464;-51
2022/07/05 10:38:38;;;;;;;2.73;1.23;;;25.00;41.80;;;;;;5227800;28;20488;-52
2022/07/05 10:41:13;;;;;;;2.50;2.10;;;25.30;41.30;;;;;;5224999;28;20429;-52
2022/07/05 10:43:44;;;;;;;1.60;1.60;;;25.80;39.50;;;;;;5222961;28;20429;-54
2022/07/05 10:46:32;;;;;;;1.53;1.43;;;25.80;39.80;;;;;;5189650;28;20445;-51
2022/07/05 10:49:15;;;;;;;3.67;1.70;;;25.80;39.90;;;;;;5224585;28;20267;-52
2022/07/05 10:51:47;;;;;;;4.20;3.60;;;25.80;39.60;;;;;;5232813;28;20452;-51
2022/07/05 10:54:17;;;;;;;2.23;2.23;;;25.50;40.00;;;;;;5227754;28;20600;-51
2022/07/05 10:57:33;;;;;;;1.53;1.53;;;25.10;40.50;;;;;;5227537;28;20441;-54
2022/07/05 11:00:06;;;;;;;3.33;2.33;;;24.70;40.90;;;;;;5198165;28;20258;-52
2022/07/05 11:02:38;;;;;;;23.93;13.43;;;24.50;42.00;;;;;;5208756;28;20468;-51
2022/07/05 11:05:08;;;;;;;4.17;2.50;;;24.60;42.10;;;;;;5225817;28;21031;-53
2022/07/05 11:07:58;;;;;;;2.60;1.97;;;24.50;41.90;;;;;;5220344;28;20468;-53
2022/07/05 11:10:31;;;;;;;3.30;3.10;;;24.30;42.30;;;;;;5223809;28;20217;-52
2022/07/05 11:13:40;;;;;;;3.63;2.63;;;24.20;43.10;;;;;;5230186;28;20429;-52
2022/07/05 11:16:29;;;;;;;7.93;3.10;;;24.20;42.90;;;;;;5225711;28;20510;-51
2022/07/05 11:19:21;;;;;;;4.13;1.70;;;24.10;42.00;;;;;;5208711;28;20464;-50
2022/07/05 11:22:03;;;;;;;4.77;1.70;;;24.30;42.80;;;;;;5227622;28;20968;-52
2022/07/05 11:24:36;;;;;;;6.50;2.10;;;24.60;42.20;;;;;;5190152;28;20887;-50
2022/07/05 11:27:11;;;;;;;9.35;5.07;;;24.90;42.00;;;;;;5183485;28;1458930;-58
2022/07/05 11:29:50;;;;;;;5.90;2.93;;;25.00;41.80;;;;;;5227495;28;20556;-51
2022/07/05 11:32:34;;;;;;;3.03;2.17;;;25.20;41.40;;;;;;5202980;28;20773;-51
2022/07/05 11:35:12;;;;;;;2.73;1.90;;;25.50;41.10;;;;;;5210689;28;20483;-53
2022/07/05 11:38:00;;;;;;;2.97;2.83;;;25.70;40.70;;;;;;5229264;28;20449;-52
2022/07/05 11:40:37;;;;;;;1.73;1.63;;;26.10;40.30;;;;;;5227859;28;20490;-50
2022/07/05 11:43:09;;;;;;;11.90;8.40;;;26.30;39.80;;;;;;5228662;28;20723;-54
2022/07/05 11:45:39;;;;;;;1.63;1.50;;;26.20;40.00;;;;;;5229098;28;20874;-52
2022/07/05 11:48:16;;;;;;;3.07;2.00;;;26.00;39.80;;;;;;5227100;28;20452;-52
2022/07/05 11:50:47;;;;;;;1.20;1.20;;;25.30;39.80;;;;;;5222709;28;20211;-52
2022/07/05 11:53:28;;;;;;;2.40;1.23;;;25.10;40.50;;;;;;5193335;28;20507;-50
2022/07/05 11:55:59;;;;;;;6.90;1.43;;;24.70;41.30;;;;;;5229182;28;20540;-52
2022/07/05 11:58:32;;;;;;;10.87;1.87;;;24.80;42.10;;;;;;5230982;28;21043;-53
2022/07/05 12:01:02;;;;;;;1.50;1.20;;;24.90;41.40;;;;;;5207984;28;20451;-54
2022/07/05 12:03:34;;;;;;;1.93;1.73;;;24.90;41.70;;;;;;5223403;28;20449;-52
2022/07/05 12:06:17;;;;;;;4.00;1.30;;;25.10;41.20;;;;;;5229595;28;20626;-53
2022/07/05 12:09:00;;;;;;;4.47;4.07;;;25.10;40.50;;;;;;5196598;28;20535;-51
2022/07/05 12:14:23;;;;;;;2.73;1.87;;;25.00;40.30;;;;;;5226601;28;20447;-54
2022/07/05 12:17:29;;;;;;;4.90;4.47;;;25.30;40.10;;;;;;5210281;28;20879;-52
2022/07/05 12:20:00;;;;;;;2.30;1.60;;;25.60;40.80;;;;;;5162421;28;20519;-52
2022/07/05 12:22:36;;;;;;;1.20;1.20;;;25.80;39.90;;;;;;5187705;28;20569;-51
2022/07/05 12:25:11;;;;;;;1.10;1.10;;;25.80;38.70;;;;;;5209436;28;20441;-51
2022/07/05 12:27:43;;;;;;;1.47;1.37;;;25.70;39.40;;;;;;5223086;28;20473;-51
2022/07/05 12:30:15;;;;;;;5.20;1.57;;;25.40;39.40;;;;;;5207192;28;20432;-52
2022/07/05 12:33:10;;;;;;;6.67;3.17;;;25.20;39.70;;;;;;5227257;28;20430;-52
2022/07/05 12:35:45;;;;;;;5.20;4.20;;;25.20;39.80;;;;;;5199288;28;20464;-51
2022/07/05 12:38:20;;;;;;;8.27;6.27;;;25.40;39.50;;;;;;5225789;28;20448;-51
2022/07/05 12:40:58;;;;;;;10.37;1.37;;;25.80;39.10;;;;;;5208261;28;20506;-51
2022/07/05 12:43:29;;;;;;;2.67;1.77;;;25.70;38.00;;;;;;5216935;28;20424;-51
2022/07/05 12:45:59;;;;;;;9.60;1.93;;;25.30;38.80;;;;;;5226231;28;20437;-51
2022/07/05 12:48:32;;;;;;;11.80;5.00;;;25.10;39.30;;;;;;5208355;28;20202;-51
2022/07/05 12:51:04;;;;;;;8.63;6.10;;;24.90;39.30;;;;;;5227058;28;20190;-50
2022/07/05 12:59:22;;;;;;;6.03;2.67;;;24.80;40.30;;;;;;5227316;28;20803;-51
2022/07/05 13:01:52;;;;;;;5.97;3.73;;;24.90;40.20;;;;;;5226299;28;20425;-51
2022/07/05 13:04:23;;;;;;;1.87;1.80;;;24.90;39.70;;;;;;5183185;28;20556;-53
2022/07/05 13:06:59;;;;;;;1.30;1.20;;;25.00;39.40;;;;;;5229230;28;20182;-52
2022/07/05 13:09:32;;;;;;;1.10;1.10;;;24.90;39.30;;;;;;5210732;28;20268;-52
2022/07/05 13:12:09;;;;;;;3.03;1.37;;;24.90;39.30;;;;;;5227427;28;21754;-51
2022/07/05 13:14:44;;;;;;;7.50;1.40;;;25.00;39.40;;;;;;5207013;28;20560;-51
2022/07/05 13:17:17;;;;;;;1.27;1.17;;;25.10;38.90;;;;;;5224245;28;20916;-51
2022/07/05 13:19:50;;;;;;;3.93;1.57;;;25.30;38.70;;;;;;5209295;28;21082;-52
2022/07/05 13:22:21;;;;;;;2.93;1.37;;;25.10;38.60;;;;;;5225693;28;20873;-51
2022/07/05 13:24:54;;;;;;;1.63;1.53;;;25.00;38.90;;;;;;5227972;28;20526;-51
2022/07/05 13:27:24;;;;;;;5.80;3.07;;;24.90;39.20;;;;;;5207991;28;20296;-50
2022/07/05 13:29:55;;;;;;;2.23;2.00;;;24.90;39.30;;;;;;5226283;28;20444;-49